Time;durP1;ratioP1;P1;durP2;ratioP2;P2;SDS_P1;SDS_P2;PMS_P1;PMS_P2;Temp;Humidity;BMP_temperature;BMP_pressure;BME280_temperature;BME280_humidity;BME280_pressure;Samples;Min_cycle;Max_cycle;Signal;HPM_P1;HPM_P2
2023/06/04 00:01:45;;;;;;;4.95;3.58;;;;;;;;;;5055573;28;20021;-60
2023/06/04 00:04:11;;;;;;;4.93;3.85;;;;;;;;;;5055820;28;20032;-60
2023/06/04 00:06:37;;;;;;;4.28;3.13;;;;;;;;;;5056193;28;20033;-60
2023/06/04 00:09:03;;;;;;;4.43;3.47;;;;;;;;;;5056052;28;20045;-60
2023/06/04 00:11:30;;;;;;;4.75;3.72;;;;;;;;;;5056366;28;20032;-60
2023/06/04 00:13:56;;;;;;;4.65;3.67;;;;;;;;;;5055677;28;20459;-60
2023/06/04 00:16:22;;;;;;;5.38;3.97;;;;;;;;;;5056039;28;20063;-60
2023/06/04 00:18:48;;;;;;;4.18;3.40;;;;;;;;;;5055419;28;20158;-60
2023/06/04 00:21:14;;;;;;;5.70;3.65;;;;;;;;;;5055865;28;20021;-60
2023/06/04 00:23:40;;;;;;;4.88;3.55;;;;;;;;;;5055177;28;20059;-60
2023/06/04 00:26:06;;;;;;;6.70;3.47;;;;;;;;;;5055109;28;20031;-60
2023/06/04 00:28:32;;;;;;;4.28;3.10;;;;;;;;;;5055205;28;20028;-60
2023/06/04 00:30:58;;;;;;;8.07;3.22;;;;;;;;;;5054725;28;20016;-60
2023/06/04 00:33:24;;;;;;;5.20;3.03;;;;;;;;;;5055412;28;20037;-60
2023/06/04 00:35:50;;;;;;;5.45;3.78;;;;;;;;;;5054637;28;20464;-60
2023/06/04 00:38:16;;;;;;;5.75;3.22;;;;;;;;;;5054703;28;20024;-60
2023/06/04 00:40:42;;;;;;;5.00;3.22;;;;;;;;;;5055115;28;20028;-60
2023/06/04 00:43:08;;;;;;;5.30;3.45;;;;;;;;;;5055671;28;20558;-60
2023/06/04 00:45:34;;;;;;;5.75;3.72;;;;;;;;;;5055637;28;20024;-60
2023/06/04 00:48:00;;;;;;;7.90;3.78;;;;;;;;;;5054923;28;20032;-60
2023/06/04 00:50:26;;;;;;;4.40;3.10;;;;;;;;;;5055055;28;20029;-60
2023/06/04 00:52:52;;;;;;;4.15;3.40;;;;;;;;;;5054700;28;20032;-60
2023/06/04 00:55:18;;;;;;;9.57;3.85;;;;;;;;;;5055123;28;20018;-60
2023/06/04 00:57:44;;;;;;;5.80;3.45;;;;;;;;;;5054682;28;20056;-60
2023/06/04 01:00:12;;;;;;;5.75;3.65;;;;;;;;;;5055375;28;20036;-60
2023/06/04 01:02:38;;;;;;;4.90;2.92;;;;;;;;;;5054593;28;20116;-60
2023/06/04 01:05:08;;;;;;;6.15;3.60;;;;;;;;;;5054780;28;20036;-60
2023/06/04 01:07:35;;;;;;;5.57;3.65;;;;;;;;;;5055038;28;20060;-60
2023/06/04 01:10:01;;;;;;;4.95;3.28;;;;;;;;;;5054466;28;20421;-60
2023/06/04 01:12:27;;;;;;;5.78;3.80;;;;;;;;;;5054587;28;20366;-60
2023/06/04 01:14:53;;;;;;;4.03;3.00;;;;;;;;;;5054553;28;20053;-60
2023/06/04 01:17:36;;;;;;;5.40;3.85;;;;;;;;;;5054336;28;20028;-60
2023/06/04 01:20:08;;;;;;;5.45;2.95;;;;;;;;;;5054839;28;20056;-60
2023/06/04 01:22:37;;;;;;;4.78;2.97;;;;;;;;;;5054673;28;20111;-60
2023/06/04 01:25:04;;;;;;;4.72;3.67;;;;;;;;;;5054195;28;20108;-60
2023/06/04 01:27:31;;;;;;;3.97;3.05;;;;;;;;;;5054461;28;20475;-60
2023/06/04 01:29:58;;;;;;;3.28;2.45;;;;;;;;;;5054601;28;20120;-60
2023/06/04 01:32:24;;;;;;;2.75;2.38;;;;;;;;;;5054351;28;20028;-60
2023/06/04 01:34:50;;;;;;;3.67;3.17;;;;;;;;;;5054584;28;20112;-60
2023/06/04 01:37:16;;;;;;;4.65;3.17;;;;;;;;;;5053817;28;20100;-60
2023/06/04 01:39:42;;;;;;;5.63;2.72;;;;;;;;;;5053925;28;20029;-60
2023/06/04 01:42:09;;;;;;;6.32;3.05;;;;;;;;;;5053839;28;20074;-60
2023/06/04 01:44:35;;;;;;;5.03;3.08;;;;;;;;;;5054476;28;20029;-60
2023/06/04 01:47:01;;;;;;;7.03;3.38;;;;;;;;;;5054148;28;20017;-60
2023/06/04 01:49:27;;;;;;;4.22;2.95;;;;;;;;;;5054121;28;20162;-60
2023/06/04 01:51:53;;;;;;;3.33;2.97;;;;;;;;;;5054259;28;20021;-60
2023/06/04 01:54:19;;;;;;;3.88;2.85;;;;;;;;;;5053506;28;20025;-60
2023/06/04 01:56:46;;;;;;;4.25;2.95;;;;;;;;;;5054556;28;20139;-60
2023/06/04 01:59:12;;;;;;;5.13;3.13;;;;;;;;;;5053743;28;20432;-60
2023/06/04 02:01:38;;;;;;;4.10;2.97;;;;;;;;;;5054137;28;20040;-60
2023/06/04 02:04:04;;;;;;;4.20;2.80;;;;;;;;;;5053335;28;20060;-60
2023/06/04 02:06:31;;;;;;;4.45;2.72;;;;;;;;;;5053506;28;20043;-60
2023/06/04 02:08:57;;;;;;;4.10;3.00;;;;;;;;;;5054006;28;20051;-60
2023/06/04 02:11:23;;;;;;;4.60;3.15;;;;;;;;;;5054089;28;20362;-60
2023/06/04 02:13:49;;;;;;;3.65;2.80;;;;;;;;;;5053976;28;20132;-60
2023/06/04 02:16:15;;;;;;;4.20;2.60;;;;;;;;;;5053835;28;20035;-60
2023/06/04 02:18:41;;;;;;;3.20;2.53;;;;;;;;;;5053829;28;20025;-60
2023/06/04 02:21:06;;;;;;;3.55;2.30;;;;;;;;;;5053527;28;20378;-60
2023/06/04 02:23:33;;;;;;;3.83;2.15;;;;;;;;;;5053344;28;20075;-60
2023/06/04 02:25:58;;;;;;;5.15;2.63;;;;;;;;;;5053828;28;20032;-60
2023/06/04 02:28:25;;;;;;;3.55;2.50;;;;;;;;;;5053714;28;20033;-60
2023/06/04 02:30:51;;;;;;;4.18;2.45;;;;;;;;;;5053861;28;20123;-60
2023/06/04 02:33:17;;;;;;;4.35;2.90;;;;;;;;;;5053375;28;20200;-60
2023/06/04 02:35:43;;;;;;;4.40;2.72;;;;;;;;;;5052390;28;20409;-60
2023/06/04 02:38:09;;;;;;;8.43;2.72;;;;;;;;;;5053311;28;20367;-60
2023/06/04 02:40:35;;;;;;;3.03;2.03;;;;;;;;;;5053289;28;20024;-60
2023/06/04 02:43:01;;;;;;;5.35;2.33;;;;;;;;;;5053390;28;20037;-60
2023/06/04 02:45:28;;;;;;;3.80;2.60;;;;;;;;;;5053780;28;20359;-60
2023/06/04 02:47:53;;;;;;;4.25;2.33;;;;;;;;;;5054018;28;20067;-60
2023/06/04 02:50:20;;;;;;;2.85;2.10;;;;;;;;;;5057127;28;20033;-60
2023/06/04 02:52:45;;;;;;;3.50;2.05;;;;;;;;;;5057009;28;20112;-60
2023/06/04 02:55:12;;;;;;;2.90;2.08;;;;;;;;;;5057296;28;20056;-60
2023/06/04 02:57:40;;;;;;;6.80;2.35;;;;;;;;;;5058042;28;20029;-60
2023/06/04 03:00:11;;;;;;;4.57;2.55;;;;;;;;;;5057377;28;20021;-60
2023/06/04 03:02:37;;;;;;;5.22;2.80;;;;;;;;;;5056696;28;20474;-60
2023/06/04 03:05:04;;;;;;;6.40;2.15;;;;;;;;;;5057315;28;20024;-60
2023/06/04 03:07:31;;;;;;;4.40;2.17;;;;;;;;;;5057640;28;20033;-60
2023/06/04 03:09:57;;;;;;;3.28;1.88;;;;;;;;;;5056701;28;20021;-60
2023/06/04 03:12:23;;;;;;;3.72;2.30;;;;;;;;;;5056692;28;20104;-60
2023/06/04 03:14:49;;;;;;;3.65;2.28;;;;;;;;;;5056557;28;20048;-60
2023/06/04 03:17:15;;;;;;;4.93;2.28;;;;;;;;;;5056558;28;20395;-60
2023/06/04 03:19:42;;;;;;;3.35;1.95;;;;;;;;;;5056247;28;20083;-60
2023/06/04 03:22:09;;;;;;;2.40;1.70;;;;;;;;;;5056987;28;20371;-60
2023/06/04 03:24:36;;;;;;;4.63;2.33;;;;;;;;;;5056328;28;20041;-60
2023/06/04 03:27:02;;;;;;;2.50;1.77;;;;;;;;;;5056643;28;20028;-60
2023/06/04 03:29:28;;;;;;;2.85;2.08;;;;;;;;;;5056884;28;20105;-60
2023/06/04 03:31:54;;;;;;;3.47;2.28;;;;;;;;;;5056636;28;20455;-60
2023/06/04 03:34:20;;;;;;;3.05;2.00;;;;;;;;;;5056865;28;20025;-60
2023/06/04 03:36:46;;;;;;;3.60;1.95;;;;;;;;;;5056929;28;20021;-60
2023/06/04 03:39:12;;;;;;;2.38;1.65;;;;;;;;;;5056316;28;20470;-60
2023/06/04 03:41:38;;;;;;;3.80;2.33;;;;;;;;;;5056167;28;20021;-60
2023/06/04 03:44:04;;;;;;;3.67;2.25;;;;;;;;;;5056133;28;20068;-60
2023/06/04 03:46:33;;;;;;;2.63;1.92;;;;;;;;;;5056169;28;20025;-60
2023/06/04 03:48:59;;;;;;;6.40;2.50;;;;;;;;;;5056072;28;20021;-60
2023/06/04 03:51:25;;;;;;;2.58;1.75;;;;;;;;;;5056036;28;20065;-60
2023/06/04 03:53:51;;;;;;;4.13;1.95;;;;;;;;;;5056028;28;20025;-60
2023/06/04 03:56:17;;;;;;;2.70;1.80;;;;;;;;;;5056287;28;20017;-60
2023/06/04 03:58:43;;;;;;;4.45;2.20;;;;;;;;;;5056386;28;20398;-60
2023/06/04 04:01:10;;;;;;;4.20;2.15;;;;;;;;;;5056205;28;20021;-60
2023/06/04 04:03:36;;;;;;;3.03;1.75;;;;;;;;;;5056119;28;20068;-60
2023/06/04 04:06:02;;;;;;;2.35;1.70;;;;;;;;;;5056347;28;20060;-60
2023/06/04 04:08:31;;;;;;;3.22;2.03;;;;;;;;;;5055739;28;20028;-60
2023/06/04 04:11:01;;;;;;;3.80;2.05;;;;;;;;;;5055366;28;20481;-60
2023/06/04 04:13:27;;;;;;;2.27;1.27;;;;;;;;;;5055522;28;20033;-60
2023/06/04 04:15:53;;;;;;;2.70;1.77;;;;;;;;;;5056211;28;20414;-60
2023/06/04 04:18:19;;;;;;;2.72;1.75;;;;;;;;;;5055560;28;20055;-60
2023/06/04 04:20:46;;;;;;;3.45;1.80;;;;;;;;;;5055463;28;20044;-60
2023/06/04 04:23:12;;;;;;;2.70;1.50;;;;;;;;;;5055101;28;20112;-60
2023/06/04 04:25:38;;;;;;;3.15;1.77;;;;;;;;;;5055151;28;20021;-60
2023/06/04 04:28:08;;;;;;;4.95;1.70;;;;;;;;;;5055644;28;20061;-60
2023/06/04 04:30:34;;;;;;;4.05;1.80;;;;;;;;;;5055547;28;20040;-60
2023/06/04 04:33:01;;;;;;;2.13;1.35;;;;;;;;;;5055168;28;20044;-60
2023/06/04 04:35:27;;;;;;;2.55;1.40;;;;;;;;;;5055488;28;20102;-60
2023/06/04 04:37:53;;;;;;;2.92;1.63;;;;;;;;;;5055206;28;20111;-60
2023/06/04 04:40:19;;;;;;;2.72;1.40;;;;;;;;;;5055092;28;20024;-60
2023/06/04 04:42:45;;;;;;;2.65;1.52;;;;;;;;;;5054965;28;20029;-60
2023/06/04 04:45:11;;;;;;;4.40;1.75;;;;;;;;;;5054996;28;20152;-60
2023/06/04 04:47:37;;;;;;;4.18;2.15;;;;;;;;;;5055493;28;20028;-60
2023/06/04 04:50:03;;;;;;;3.83;1.70;;;;;;;;;;5055373;28;20055;-60
2023/06/04 04:52:29;;;;;;;4.68;1.98;;;;;;;;;;5055323;28;20067;-60
2023/06/04 04:54:57;;;;;;;4.75;2.13;;;;;;;;;;5055030;28;20020;-60
2023/06/04 04:57:23;;;;;;;2.92;1.60;;;;;;;;;;5054803;28;20021;-60
2023/06/04 04:59:49;;;;;;;2.58;1.73;;;;;;;;;;5054722;28;20403;-60
2023/06/04 05:02:15;;;;;;;2.78;1.80;;;;;;;;;;5054559;28;20108;-60
2023/06/04 05:04:41;;;;;;;3.75;1.90;;;;;;;;;;5054625;28;20029;-60
2023/06/04 05:07:07;;;;;;;3.53;1.98;;;;;;;;;;5054923;28;20025;-60
2023/06/04 05:09:33;;;;;;;6.85;2.45;;;;;;;;;;5054555;28;20530;-60
2023/06/04 05:12:00;;;;;;;2.40;1.63;;;;;;;;;;5054011;28;20021;-60
2023/06/04 05:14:27;;;;;;;2.78;1.90;;;;;;;;;;5054135;28;20064;-60
2023/06/04 05:16:53;;;;;;;3.25;1.75;;;;;;;;;;5055135;28;20025;-60
2023/06/04 05:19:19;;;;;;;2.35;1.35;;;;;;;;;;5054397;28;20028;-60
2023/06/04 05:21:45;;;;;;;2.30;1.35;;;;;;;;;;5054315;28;20025;-60
2023/06/04 05:24:11;;;;;;;2.95;1.80;;;;;;;;;;5054236;28;20040;-60
2023/06/04 05:26:39;;;;;;;3.13;1.95;;;;;;;;;;5054910;28;20033;-60
2023/06/04 05:29:05;;;;;;;2.45;1.55;;;;;;;;;;5054223;28;20068;-60
2023/06/04 05:31:34;;;;;;;2.92;1.83;;;;;;;;;;5052986;28;20052;-60
2023/06/04 05:34:06;;;;;;;2.90;1.55;;;;;;;;;;5053758;28;20507;-60
2023/06/04 05:36:32;;;;;;;2.38;1.50;;;;;;;;;;5054082;28;20083;-60
2023/06/04 05:38:59;;;;;;;3.00;2.08;;;;;;;;;;5054327;28;20452;-60
2023/06/04 05:41:25;;;;;;;4.63;1.88;;;;;;;;;;5053997;28;20029;-60
2023/06/04 05:43:51;;;;;;;2.25;1.55;;;;;;;;;;5054709;28;20029;-60
2023/06/04 05:46:18;;;;;;;2.67;1.60;;;;;;;;;;5054263;28;20021;-60
2023/06/04 05:48:44;;;;;;;3.30;1.92;;;;;;;;;;5053847;28;20111;-60
2023/06/04 05:51:10;;;;;;;3.88;1.98;;;;;;;;;;5054339;28;20032;-60
2023/06/04 05:53:36;;;;;;;5.63;1.33;;;;;;;;;;5053870;28;20033;-60
2023/06/04 05:56:02;;;;;;;2.97;1.17;;;;;;;;;;5053924;28;20035;-60
2023/06/04 05:58:28;;;;;;;2.90;1.40;;;;;;;;;;5054386;28;20028;-60
2023/06/04 06:00:54;;;;;;;2.28;1.48;;;;;;;;;;5053685;28;20021;-60
2023/06/04 06:03:20;;;;;;;3.47;1.42;;;;;;;;;;5053730;28;20037;-60
2023/06/04 06:05:46;;;;;;;3.17;1.55;;;;;;;;;;5053742;28;20079;-60
2023/06/04 06:08:12;;;;;;;3.17;1.85;;;;;;;;;;5053734;28;20036;-60
2023/06/04 06:10:38;;;;;;;2.20;1.42;;;;;;;;;;5053720;28;20111;-60
2023/06/04 06:13:04;;;;;;;2.90;1.30;;;;;;;;;;5053682;28;20025;-60
2023/06/04 06:15:30;;;;;;;6.93;1.88;;;;;;;;;;5054260;28;20166;-60
2023/06/04 06:17:56;;;;;;;3.05;1.38;;;;;;;;;;5053877;28;20447;-60
2023/06/04 06:20:22;;;;;;;4.00;2.17;;;;;;;;;;5053457;28;20434;-60
2023/06/04 06:22:48;;;;;;;2.85;1.70;;;;;;;;;;5053472;28;20116;-60
2023/06/04 06:25:16;;;;;;;3.00;1.58;;;;;;;;;;5057208;28;20028;-60
2023/06/04 06:27:42;;;;;;;2.42;1.60;;;;;;;;;;5057996;28;20494;-60
2023/06/04 06:30:08;;;;;;;4.18;1.63;;;;;;;;;;5057604;28;20074;-60
2023/06/04 06:32:35;;;;;;;3.20;1.88;;;;;;;;;;5057279;28;20028;-60
2023/06/04 06:35:01;;;;;;;2.85;1.60;;;;;;;;;;5057389;28;20025;-60
2023/06/04 06:37:27;;;;;;;2.55;1.70;;;;;;;;;;5057767;28;20029;-60
2023/06/04 06:39:53;;;;;;;3.35;1.50;;;;;;;;;;5057655;28;20029;-60
2023/06/04 06:42:19;;;;;;;2.92;1.60;;;;;;;;;;5057332;28;20367;-60
2023/06/04 06:44:45;;;;;;;2.50;1.50;;;;;;;;;;5057294;28;20098;-60
2023/06/04 06:47:14;;;;;;;3.30;1.75;;;;;;;;;;5057212;28;20450;-60
2023/06/04 06:49:41;;;;;;;1.92;1.13;;;;;;;;;;5057040;28;20425;-60
2023/06/04 06:52:07;;;;;;;2.80;1.67;;;;;;;;;;5057628;28;20116;-60
2023/06/04 06:54:33;;;;;;;2.45;1.67;;;;;;;;;;5057112;28;20435;-60
2023/06/04 06:56:59;;;;;;;2.92;1.60;;;;;;;;;;5057692;28;20049;-60
2023/06/04 06:59:25;;;;;;;3.35;1.65;;;;;;;;;;5056750;28;20067;-60
2023/06/04 07:01:51;;;;;;;2.63;1.58;;;;;;;;;;5056906;28;20021;-60
2023/06/04 07:04:17;;;;;;;2.42;1.45;;;;;;;;;;5057269;28;20459;-60
2023/06/04 07:06:43;;;;;;;2.88;1.80;;;;;;;;;;5056840;28;20047;-60
2023/06/04 07:09:09;;;;;;;3.67;1.75;;;;;;;;;;5056599;28;20390;-60
2023/06/04 07:11:36;;;;;;;4.20;1.98;;;;;;;;;;5056334;28;20025;-60
2023/06/04 07:14:02;;;;;;;2.47;1.67;;;;;;;;;;5056790;28;20045;-60
2023/06/04 07:16:28;;;;;;;3.40;1.92;;;;;;;;;;5056582;28;20064;-60
2023/06/04 07:18:54;;;;;;;3.08;2.10;;;;;;;;;;5057189;28;20056;-60
2023/06/04 07:21:23;;;;;;;6.57;1.65;;;;;;;;;;5056555;28;20068;-60
2023/06/04 07:23:50;;;;;;;2.63;1.50;;;;;;;;;;5056973;28;20267;-60
2023/06/04 07:26:16;;;;;;;2.75;1.88;;;;;;;;;;5056508;28;20448;-60
2023/06/04 07:28:42;;;;;;;4.03;2.28;;;;;;;;;;5056699;28;20036;-60
2023/06/04 07:31:08;;;;;;;2.92;1.52;;;;;;;;;;5056944;28;20426;-60
2023/06/04 07:33:34;;;;;;;8.77;1.92;;;;;;;;;;5056363;28;20064;-60
2023/06/04 07:36:00;;;;;;;2.90;1.98;;;;;;;;;;5056552;28;20024;-60
2023/06/04 07:38:29;;;;;;;2.05;1.38;;;;;;;;;;5056251;28;20017;-60
2023/06/04 07:40:55;;;;;;;2.65;1.33;;;;;;;;;;5056217;28;20029;-60
2023/06/04 07:43:21;;;;;;;3.25;1.92;;;;;;;;;;5056096;28;20029;-60
2023/06/04 07:45:47;;;;;;;3.33;1.52;;;;;;;;;;5056327;28;20043;-60
2023/06/04 07:48:13;;;;;;;3.42;2.25;;;;;;;;;;5056409;28;20498;-60
2023/06/04 07:50:40;;;;;;;3.05;1.90;;;;;;;;;;5056031;28;20036;-60
2023/06/04 07:53:06;;;;;;;3.30;2.05;;;;;;;;;;5055981;28;20070;-60
2023/06/04 07:55:33;;;;;;;3.00;1.77;;;;;;;;;;5056402;28;20017;-60
2023/06/04 07:57:59;;;;;;;3.03;1.90;;;;;;;;;;5056510;28;20028;-60
2023/06/04 08:00:25;;;;;;;2.45;1.50;;;;;;;;;;5055807;28;20032;-60
2023/06/04 08:02:52;;;;;;;2.70;1.60;;;;;;;;;;5055340;28;20033;-60
2023/06/04 08:05:18;;;;;;;5.57;2.10;;;;;;;;;;5056527;28;20037;-60
2023/06/04 08:07:44;;;;;;;5.53;2.25;;;;;;;;;;5056037;28;20021;-60
2023/06/04 08:10:10;;;;;;;3.08;1.77;;;;;;;;;;5055673;28;20478;-60
2023/06/04 08:12:36;;;;;;;3.20;1.90;;;;;;;;;;5055529;28;20032;-60
2023/06/04 08:15:03;;;;;;;2.25;1.40;;;;;;;;;;5054047;28;20048;-60
2023/06/04 08:17:29;;;;;;;3.60;2.17;;;;;;;;;;5055818;28;20025;-60
2023/06/04 08:19:56;;;;;;;2.47;1.40;;;;;;;;;;5055465;28;20108;-60
2023/06/04 08:22:22;;;;;;;3.95;1.88;;;;;;;;;;5055379;28;20436;-60
2023/06/04 08:24:48;;;;;;;3.88;1.80;;;;;;;;;;5054998;28;20116;-60
2023/06/04 08:27:14;;;;;;;3.55;1.98;;;;;;;;;;5055984;28;20025;-60
2023/06/04 08:29:40;;;;;;;2.88;2.08;;;;;;;;;;5055305;28;20025;-60
2023/06/04 08:32:07;;;;;;;2.58;1.55;;;;;;;;;;5055810;28;20064;-60
2023/06/04 08:34:33;;;;;;;1.83;1.17;;;;;;;;;;5055154;28;20032;-60
2023/06/04 08:36:59;;;;;;;5.35;2.65;;;;;;;;;;5055280;28;20074;-60
2023/06/04 08:39:25;;;;;;;3.75;2.22;;;;;;;;;;5055074;28;20029;-60
2023/06/04 08:42:01;;;;;;;3.05;2.15;;;;;;;;;;5053803;28;20410;-60
2023/06/04 08:44:29;;;;;;;2.60;1.70;;;;;;;;;;5055828;28;20072;-60
2023/06/04 08:46:58;;;;;;;4.55;2.47;;;;;;;;;;5054180;28;20086;-60
2023/06/04 08:49:25;;;;;;;4.88;2.10;;;;;;;;;;5054666;28;20470;-60
2023/06/04 08:51:51;;;;;;;1.83;1.10;;;;;;;;;;5055369;28;20075;-60
2023/06/04 08:54:17;;;;;;;3.25;1.90;;;;;;;;;;5055126;28;20025;-60
2023/06/04 08:56:43;;;;;;;2.38;1.52;;;;;;;;;;5054979;28;20032;-60
2023/06/04 08:59:10;;;;;;;3.88;2.33;;;;;;;;;;5054733;28;20305;-60
2023/06/04 09:01:37;;;;;;;2.75;1.67;;;;;;;;;;5055082;28;20374;-60
2023/06/04 09:04:07;;;;;;;2.78;1.80;;;;;;;;;;5054284;28;20374;-60
2023/06/04 09:06:33;;;;;;;5.50;1.40;;;;;;;;;;5054889;28;20035;-60
2023/06/04 09:09:01;;;;;;;3.05;2.03;;;;;;;;;;5054552;28;20028;-60
2023/06/04 09:11:30;;;;;;;3.42;1.92;;;;;;;;;;5054813;28;20029;-60
2023/06/04 09:14:00;;;;;;;5.60;1.97;;;;;;;;;;5054051;28;20561;-60
2023/06/04 09:16:26;;;;;;;3.20;1.92;;;;;;;;;;5054866;28;20347;-60
2023/06/04 09:18:52;;;;;;;2.85;1.52;;;;;;;;;;5054390;28;20060;-60
2023/06/04 09:21:19;;;;;;;2.75;1.70;;;;;;;;;;5054664;28;20067;-60
2023/06/04 09:23:49;;;;;;;3.85;1.98;;;;;;;;;;5054581;28;20033;-60
2023/06/04 09:26:15;;;;;;;6.35;2.10;;;;;;;;;;5054733;28;20032;-60
2023/06/04 09:28:42;;;;;;;8.63;2.70;;;;;;;;;;5054505;28;20367;-60
2023/06/04 09:31:15;;;;;;;2.60;1.65;;;;;;;;;;5054725;28;20032;-60
2023/06/04 09:33:48;;;;;;;2.92;1.85;;;;;;;;;;5053976;28;20021;-60
2023/06/04 09:36:14;;;;;;;2.83;1.75;;;;;;;;;;5054079;28;20056;-60
2023/06/04 09:38:41;;;;;;;3.08;1.80;;;;;;;;;;5053966;28;20040;-60
2023/06/04 09:41:19;;;;;;;3.25;1.80;;;;;;;;;;5053979;28;20070;-60
2023/06/04 09:43:45;;;;;;;3.20;2.10;;;;;;;;;;5053783;28;20036;-60
2023/06/04 09:46:12;;;;;;;3.38;1.95;;;;;;;;;;5054234;28;20029;-60
2023/06/04 09:48:38;;;;;;;3.55;2.30;;;;;;;;;;5054447;28;20351;-60
2023/06/04 09:51:08;;;;;;;5.28;2.15;;;;;;;;;;5053846;28;20415;-60
2023/06/04 09:53:34;;;;;;;3.60;1.85;;;;;;;;;;5053892;28;20052;-60
2023/06/04 09:56:01;;;;;;;2.75;1.73;;;;;;;;;;5053672;28;20040;-60
2023/06/04 09:58:28;;;;;;;2.70;1.98;;;;;;;;;;5053540;28;20017;-60
2023/06/04 10:00:58;;;;;;;3.60;1.95;;;;;;;;;;5053657;28;20463;-60
2023/06/04 10:03:30;;;;;;;4.13;1.83;;;;;;;;;;5053507;28;20136;-60
2023/06/04 10:05:57;;;;;;;3.00;1.92;;;;;;;;;;5053625;28;20029;-60
2023/06/04 10:08:23;;;;;;;2.75;1.67;;;;;;;;;;5053842;28;20021;-60
2023/06/04 10:10:52;;;;;;;4.25;2.95;;;;;;;;;;5053752;28;20490;-60
2023/06/04 10:13:18;;;;;;;6.55;2.65;;;;;;;;;;5053541;28;20108;-60
2023/06/04 10:15:45;;;;;;;3.85;2.20;;;;;;;;;;5053990;28;20053;-60
2023/06/04 10:18:11;;;;;;;3.78;2.78;;;;;;;;;;5054129;28;20048;-60
2023/06/04 10:20:38;;;;;;;4.82;2.65;;;;;;;;;;5053843;28;20029;-60
2023/06/04 10:23:04;;;;;;;4.25;2.53;;;;;;;;;;5053909;28;20052;-60
2023/06/04 10:25:30;;;;;;;5.30;2.63;;;;;;;;;;5053996;28;20025;-60
2023/06/04 10:27:58;;;;;;;6.53;3.35;;;;;;;;;;5054084;28;20029;-60
2023/06/04 10:30:24;;;;;;;3.15;2.13;;;;;;;;;;5053625;28;20025;-60
2023/06/04 10:32:50;;;;;;;4.68;3.42;;;;;;;;;;5053477;28;20029;-60
2023/06/04 10:35:16;;;;;;;4.35;2.78;;;;;;;;;;5053431;28;20029;-60
2023/06/04 10:37:42;;;;;;;3.05;1.90;;;;;;;;;;5053354;28;20032;-60
2023/06/04 10:40:08;;;;;;;3.88;2.28;;;;;;;;;;5053743;28;20017;-60
2023/06/04 10:42:38;;;;;;;5.80;3.15;;;;;;;;;;5053606;28;20057;-60
2023/06/04 10:45:05;;;;;;;5.55;2.35;;;;;;;;;;5053352;28;20021;-60
2023/06/04 10:47:33;;;;;;;4.35;3.10;;;;;;;;;;5053381;28;20021;-60
2023/06/04 10:50:10;;;;;;;3.58;2.42;;;;;;;;;;5053280;28;20138;-60
2023/06/04 10:52:36;;;;;;;4.68;2.45;;;;;;;;;;5053285;28;20025;-60
2023/06/04 10:55:06;;;;;;;3.13;2.45;;;;;;;;;;5053864;28;20109;-60
2023/06/04 10:57:32;;;;;;;7.30;2.45;;;;;;;;;;5053825;28;20035;-60
2023/06/04 10:59:59;;;;;;;4.15;2.60;;;;;;;;;;5053191;28;20025;-60
2023/06/04 11:02:26;;;;;;;3.17;2.38;;;;;;;;;;5053005;28;20030;-60
2023/06/04 11:05:05;;;;;;;3.22;2.50;;;;;;;;;;5053390;28;20142;-60
2023/06/04 11:07:42;;;;;;;4.80;2.80;;;;;;;;;;5053718;28;20352;-60
2023/06/04 11:10:09;;;;;;;4.05;2.63;;;;;;;;;;5055633;28;20021;-60
2023/06/04 11:12:42;;;;;;;8.05;3.17;;;;;;;;;;5057211;28;20025;-60
2023/06/04 11:15:08;;;;;;;3.67;2.55;;;;;;;;;;5057238;28;20051;-60
2023/06/04 11:17:35;;;;;;;3.03;2.40;;;;;;;;;;5056924;28;20021;-60
2023/06/04 11:20:01;;;;;;;4.35;2.72;;;;;;;;;;5056659;28;20040;-60
2023/06/04 11:22:26;;;;;;;3.85;2.78;;;;;;;;;;5056517;28;20143;-60
2023/06/04 11:25:02;;;;;;;3.00;2.08;;;;;;;;;;5056495;28;20040;-60
2023/06/04 11:27:28;;;;;;;3.60;2.65;;;;;;;;;;5057071;28;20071;-60
2023/06/04 11:29:54;;;;;;;4.20;2.92;;;;;;;;;;5056717;28;20025;-60
2023/06/04 11:32:24;;;;;;;4.40;3.10;;;;;;;;;;5056445;28;20025;-60
2023/06/04 11:34:50;;;;;;;4.88;2.70;;;;;;;;;;5056303;28;20091;-60
2023/06/04 11:37:16;;;;;;;3.85;2.50;;;;;;;;;;5056836;28;20025;-60
2023/06/04 11:39:44;;;;;;;3.85;2.55;;;;;;;;;;5056617;28;20021;-60
2023/06/04 11:42:10;;;;;;;3.10;2.17;;;;;;;;;;5056191;28;20025;-60
2023/06/04 11:44:36;;;;;;;4.43;2.78;;;;;;;;;;5056555;28;20116;-60
2023/06/04 11:47:05;;;;;;;5.32;2.60;;;;;;;;;;5056756;28;20036;-60
2023/06/04 11:49:31;;;;;;;3.75;2.60;;;;;;;;;;5056156;28;20568;-60
2023/06/04 11:51:57;;;;;;;4.65;2.55;;;;;;;;;;5056123;28;20052;-60
2023/06/04 11:54:23;;;;;;;4.30;2.55;;;;;;;;;;5056304;28;20111;-60
2023/06/04 11:56:51;;;;;;;4.30;2.67;;;;;;;;;;5056402;28;20025;-60
2023/06/04 11:59:17;;;;;;;6.47;2.70;;;;;;;;;;5055880;28;20021;-60
2023/06/04 12:01:44;;;;;;;3.42;2.38;;;;;;;;;;5055815;28;20025;-60
2023/06/04 12:04:17;;;;;;;3.28;2.65;;;;;;;;;;5055692;28;20378;-60
2023/06/04 12:06:59;;;;;;;3.17;2.40;;;;;;;;;;5056063;28;20348;-60
2023/06/04 12:09:27;;;;;;;3.85;2.72;;;;;;;;;;5056274;28;20100;-60
2023/06/04 12:11:58;;;;;;;4.05;2.92;;;;;;;;;;5055694;28;20422;-60
2023/06/04 12:14:24;;;;;;;3.83;2.53;;;;;;;;;;5056074;28;20406;-60
2023/06/04 12:16:55;;;;;;;4.55;2.55;;;;;;;;;;5056041;28;20123;-60
2023/06/04 12:19:22;;;;;;;3.28;2.00;;;;;;;;;;5056412;28;20374;-59
2023/06/04 12:22:00;;;;;;;3.53;2.53;;;;;;;;;;5054238;28;20424;-59
2023/06/04 12:24:26;;;;;;;3.88;2.55;;;;;;;;;;5055368;28;20039;-59
2023/06/04 12:27:01;;;;;;;3.00;2.15;;;;;;;;;;5055216;28;20100;-59
2023/06/04 12:29:27;;;;;;;3.65;2.38;;;;;;;;;;5055752;28;20404;-59
2023/06/04 12:32:01;;;;;;;3.95;2.40;;;;;;;;;;5055597;28;20017;-59
2023/06/04 12:34:27;;;;;;;5.47;2.67;;;;;;;;;;5055561;28;20039;-59
2023/06/04 12:36:53;;;;;;;3.80;2.35;;;;;;;;;;5055266;28;20104;-59
2023/06/04 12:39:19;;;;;;;3.75;2.40;;;;;;;;;;5055088;28;20029;-59
2023/06/04 12:41:46;;;;;;;2.58;1.83;;;;;;;;;;5055367;28;20074;-59
2023/06/04 12:44:12;;;;;;;3.80;2.35;;;;;;;;;;5054909;28;20134;-60
2023/06/04 12:46:38;;;;;;;3.83;2.35;;;;;;;;;;5054708;28;20509;-60
2023/06/04 12:49:05;;;;;;;5.35;3.15;;;;;;;;;;5054813;28;20029;-60
2023/06/04 12:51:31;;;;;;;3.60;2.40;;;;;;;;;;5054854;28;20017;-60
2023/06/04 12:53:57;;;;;;;3.35;2.40;;;;;;;;;;5054915;28;20029;-60
2023/06/04 12:56:23;;;;;;;7.43;3.05;;;;;;;;;;5055431;28;20090;-60
2023/06/04 12:58:49;;;;;;;4.38;2.72;;;;;;;;;;5054766;28;20371;-60
2023/06/04 13:01:15;;;;;;;4.85;3.20;;;;;;;;;;5054744;28;20016;-60
2023/06/04 13:03:41;;;;;;;3.55;2.60;;;;;;;;;;5054480;28;20029;-60
2023/06/04 13:06:08;;;;;;;3.88;2.40;;;;;;;;;;5055045;28;20036;-60
2023/06/04 13:08:34;;;;;;;4.07;3.45;;;;;;;;;;5054584;28;20025;-60
2023/06/04 13:11:00;;;;;;;6.68;3.30;;;;;;;;;;5054486;28;20021;-60
2023/06/04 13:13:28;;;;;;;3.92;3.13;;;;;;;;;;5054691;28;20106;-60
2023/06/04 13:15:54;;;;;;;6.93;3.15;;;;;;;;;;5055276;28;20025;-60
2023/06/04 13:18:20;;;;;;;4.22;2.60;;;;;;;;;;5054413;28;20021;-60
2023/06/04 13:20:46;;;;;;;4.10;3.00;;;;;;;;;;5054441;28;20017;-60
2023/06/04 13:23:12;;;;;;;4.45;2.47;;;;;;;;;;5054336;28;20033;-60
2023/06/04 13:25:39;;;;;;;2.97;2.17;;;;;;;;;;5054821;28;20028;-60
2023/06/04 13:28:05;;;;;;;3.55;2.17;;;;;;;;;;5054783;28;20028;-60
2023/06/04 13:30:31;;;;;;;4.90;2.60;;;;;;;;;;5054165;28;20098;-60
2023/06/04 13:33:00;;;;;;;3.88;2.58;;;;;;;;;;5054312;28;20182;-60
2023/06/04 13:35:26;;;;;;;3.55;2.05;;;;;;;;;;5054093;28;20021;-60
2023/06/04 13:37:52;;;;;;;4.38;2.75;;;;;;;;;;5054901;28;20027;-60
2023/06/04 13:40:18;;;;;;;3.63;2.75;;;;;;;;;;5054079;28;20371;-60
2023/06/04 13:42:44;;;;;;;4.32;2.88;;;;;;;;;;5053968;28;20408;-60
2023/06/04 13:45:10;;;;;;;3.20;2.03;;;;;;;;;;5053989;28;20056;-60
2023/06/04 13:47:36;;;;;;;3.22;2.40;;;;;;;;;;5054602;28;20067;-60
2023/06/04 13:50:03;;;;;;;5.05;2.85;;;;;;;;;;5053896;28;20021;-60
2023/06/04 13:52:29;;;;;;;2.70;2.20;;;;;;;;;;5053705;28;20491;-60
2023/06/04 13:54:55;;;;;;;3.13;2.58;;;;;;;;;;5054248;28;20060;-60
2023/06/04 13:57:22;;;;;;;3.95;2.58;;;;;;;;;;5054280;28;20025;-60
2023/06/04 13:59:48;;;;;;;3.65;1.90;;;;;;;;;;5054100;28;20078;-60
2023/06/04 14:02:15;;;;;;;4.07;2.65;;;;;;;;;;5053646;28;20484;-60
2023/06/04 14:04:41;;;;;;;3.25;1.90;;;;;;;;;;5054110;28;20048;-60
2023/06/04 14:07:07;;;;;;;3.90;2.65;;;;;;;;;;5054540;28;20036;-60
2023/06/04 14:09:33;;;;;;;6.93;2.25;;;;;;;;;;5054416;28;20017;-60
2023/06/04 14:11:59;;;;;;;3.38;2.28;;;;;;;;;;5053554;28;20029;-60
2023/06/04 14:14:26;;;;;;;4.25;2.17;;;;;;;;;;5053682;28;20045;-60
2023/06/04 14:16:54;;;;;;;3.53;2.33;;;;;;;;;;5053589;28;20029;-60
2023/06/04 14:19:20;;;;;;;7.63;2.38;;;;;;;;;;5053820;28;20035;-60
2023/06/04 14:21:46;;;;;;;4.15;2.75;;;;;;;;;;5053558;28;20104;-60
2023/06/04 14:24:12;;;;;;;3.38;2.40;;;;;;;;;;5053752;28;20040;-60
2023/06/04 14:26:38;;;;;;;4.35;2.83;;;;;;;;;;5053779;28;20079;-60
2023/06/04 14:29:04;;;;;;;3.85;2.35;;;;;;;;;;5053414;28;20051;-60
2023/06/04 14:31:30;;;;;;;4.10;2.55;;;;;;;;;;5054300;28;20025;-60
2023/06/04 14:33:56;;;;;;;3.60;2.25;;;;;;;;;;5053520;28;20070;-60
2023/06/04 14:36:22;;;;;;;8.35;3.13;;;;;;;;;;5054033;28;20024;-60
2023/06/04 14:38:48;;;;;;;4.50;2.42;;;;;;;;;;5053417;28;20029;-60
2023/06/04 14:41:15;;;;;;;4.28;2.85;;;;;;;;;;5053354;28;20021;-60